Time;durP1;ratioP1;P1;durP2;ratioP2;P2;SDS_P1;SDS_P2;PMS_P1;PMS_P2;Temp;Humidity;BMP_temperature;BMP_pressure;BME280_temperature;BME280_humidity;BME280_pressure;Samples;Min_cycle;Max_cycle;Signal;HPM_P1;HPM_P2
2023/04/20 00:00:44;;;;;;;0.73;0.73;;;5.40;99.90;;;;;;5073166;28;20492;-81
2023/04/20 00:03:11;;;;;;;1.40;0.50;;;5.30;99.90;;;;;;5073690;28;20449;-81
2023/04/20 00:05:38;;;;;;;0.73;0.60;;;5.30;99.90;;;;;;5073638;28;20453;-81
2023/04/20 00:08:06;;;;;;;0.63;0.40;;;5.20;99.90;;;;;;5073629;28;20441;-81
2023/04/20 00:10:33;;;;;;;0.60;0.40;;;5.20;99.90;;;;;;5073510;28;20469;-81
2023/04/20 00:13:00;;;;;;;1.13;1.03;;;5.20;99.90;;;;;;5073696;28;20457;-81
2023/04/20 00:15:26;;;;;;;0.90;0.50;;;5.20;99.90;;;;;;5073252;28;20438;-81
2023/04/20 00:17:53;;;;;;;0.83;0.60;;;5.20;99.90;;;;;;5073089;28;21031;-81
2023/04/20 00:20:20;;;;;;;1.03;0.60;;;5.10;99.90;;;;;;5073385;28;20878;-81
2023/04/20 00:22:47;;;;;;;0.53;0.53;;;5.10;99.90;;;;;;5073463;28;20507;-81
2023/04/20 00:25:15;;;;;;;1.03;0.60;;;5.00;99.90;;;;;;5073413;28;20463;-81
2023/04/20 00:27:41;;;;;;;1.17;0.60;;;5.00;99.90;;;;;;5073391;28;20442;-80
2023/04/20 00:30:10;;;;;;;1.03;0.50;;;4.90;99.90;;;;;;5073348;28;20476;-81
2023/04/20 00:32:36;;;;;;;1.00;0.70;;;4.90;99.90;;;;;;5073315;28;20449;-80
2023/04/20 00:35:03;;;;;;;0.83;0.60;;;4.80;99.90;;;;;;5073331;28;20441;-81
2023/04/20 00:37:30;;;;;;;0.67;0.50;;;4.70;99.90;;;;;;5073234;28;20488;-81
2023/04/20 00:39:57;;;;;;;2.20;0.60;;;4.70;99.90;;;;;;5073209;28;20461;-81
2023/04/20 00:42:25;;;;;;;0.80;0.60;;;4.70;99.90;;;;;;5073524;28;20852;-81
2023/04/20 00:44:52;;;;;;;2.33;0.80;;;4.70;99.90;;;;;;5077455;28;20449;-81
2023/04/20 00:47:19;;;;;;;2.10;0.97;;;4.70;99.90;;;;;;5077050;28;20848;-81
2023/04/20 00:49:45;;;;;;;0.50;0.50;;;4.60;99.90;;;;;;5077224;28;20479;-81
2023/04/20 00:52:12;;;;;;;0.57;0.57;;;4.60;99.90;;;;;;5077007;28;20449;-81
2023/04/20 00:54:39;;;;;;;2.63;0.70;;;4.60;99.90;;;;;;5076892;28;20454;-81
2023/04/20 00:57:06;;;;;;;2.47;0.63;;;4.60;99.90;;;;;;5077104;28;20821;-81
2023/04/20 00:59:34;;;;;;;0.80;0.80;;;4.60;99.90;;;;;;5077148;28;20445;-81
2023/04/20 01:02:01;;;;;;;1.17;1.17;;;4.60;99.90;;;;;;5076521;28;20894;-81
2023/04/20 01:04:28;;;;;;;0.53;0.50;;;4.50;99.90;;;;;;5077044;28;20583;-81
2023/04/20 01:06:55;;;;;;;0.50;0.50;;;4.50;99.90;;;;;;5076981;28;20491;-81
2023/04/20 01:09:22;;;;;;;0.37;0.37;;;4.40;99.90;;;;;;5076945;28;20449;-81
2023/04/20 01:11:49;;;;;;;0.50;0.50;;;4.40;99.90;;;;;;5076840;28;20875;-80
2023/04/20 01:14:16;;;;;;;0.67;0.67;;;4.40;99.90;;;;;;5076545;28;20448;-80
2023/04/20 01:16:46;;;;;;;0.50;0.50;;;4.30;99.90;;;;;;5076457;28;20959;-81
2023/04/20 01:19:13;;;;;;;0.70;0.50;;;4.30;99.90;;;;;;5076722;28;20449;-80
2023/04/20 01:21:40;;;;;;;0.50;0.50;;;4.30;99.90;;;;;;5076627;28;20461;-81
2023/04/20 01:24:08;;;;;;;4.87;1.63;;;4.20;99.90;;;;;;5076705;28;20849;-81
2023/04/20 01:26:35;;;;;;;0.50;0.40;;;4.20;99.90;;;;;;5076653;28;20869;-81
2023/04/20 01:29:02;;;;;;;0.63;0.50;;;4.20;99.90;;;;;;5076545;28;20453;-81
2023/04/20 01:31:28;;;;;;;0.90;0.80;;;4.20;99.90;;;;;;5076478;28;20468;-81
2023/04/20 01:33:55;;;;;;;2.87;0.80;;;4.20;99.90;;;;;;5076471;28;20444;-81
2023/04/20 01:36:22;;;;;;;1.23;0.60;;;4.10;99.90;;;;;;5076122;28;20941;-81
2023/04/20 01:38:49;;;;;;;0.73;0.73;;;4.10;99.90;;;;;;5076003;28;20515;-81
2023/04/20 01:41:17;;;;;;;3.70;0.73;;;4.00;99.90;;;;;;5075943;28;20495;-81
2023/04/20 01:43:43;;;;;;;1.43;1.33;;;4.00;99.90;;;;;;5076286;28;20442;-81
2023/04/20 01:46:10;;;;;;;0.80;0.70;;;4.00;99.90;;;;;;5076290;28;20437;-81
2023/04/20 01:48:37;;;;;;;0.57;0.50;;;4.00;99.90;;;;;;5075898;28;20499;-81
2023/04/20 01:51:03;;;;;;;2.57;0.70;;;4.00;99.90;;;;;;5076135;28;20484;-80
2023/04/20 01:53:30;;;;;;;0.77;0.77;;;4.00;99.90;;;;;;5076068;28;20457;-81
2023/04/20 01:55:57;;;;;;;1.00;0.90;;;4.00;99.90;;;;;;5076063;28;20441;-81
2023/04/20 01:58:25;;;;;;;1.00;0.53;;;4.00;99.90;;;;;;5075638;28;20492;-81
2023/04/20 02:00:51;;;;;;;0.60;0.60;;;3.90;99.90;;;;;;5075567;28;20493;-81
2023/04/20 02:03:18;;;;;;;0.73;0.73;;;3.90;99.90;;;;;;5075916;28;20457;-81
2023/04/20 02:05:45;;;;;;;0.67;0.57;;;3.90;99.90;;;;;;5075593;28;20932;-81
2023/04/20 02:08:12;;;;;;;0.90;0.90;;;3.90;99.90;;;;;;5075610;28;20464;-81
2023/04/20 02:10:38;;;;;;;0.80;0.60;;;3.90;99.90;;;;;;5075756;28;20469;-81
2023/04/20 02:13:05;;;;;;;0.70;0.70;;;3.80;99.90;;;;;;5075471;28;21002;-80
2023/04/20 02:15:33;;;;;;;0.60;0.60;;;3.80;99.90;;;;;;5075767;28;20448;-81
2023/04/20 02:18:00;;;;;;;1.17;0.90;;;3.80;99.90;;;;;;5075602;28;20481;-81
2023/04/20 02:20:26;;;;;;;0.60;0.60;;;3.80;99.90;;;;;;5075295;28;21006;-81
2023/04/20 02:22:53;;;;;;;0.67;0.67;;;3.70;99.90;;;;;;5075590;28;20445;-81
2023/04/20 02:25:21;;;;;;;1.70;1.60;;;3.70;99.90;;;;;;5075223;28;20860;-81
2023/04/20 02:27:48;;;;;;;0.63;0.63;;;3.70;99.90;;;;;;5075516;28;20457;-81
2023/04/20 02:30:15;;;;;;;2.53;1.03;;;3.70;99.90;;;;;;5075322;28;20473;-81
2023/04/20 02:32:43;;;;;;;2.13;0.83;;;3.70;99.90;;;;;;5075369;28;20453;-81
2023/04/20 02:35:10;;;;;;;0.60;0.60;;;3.60;99.90;;;;;;5075379;28;20445;-81
2023/04/20 02:37:37;;;;;;;1.27;0.63;;;3.60;99.90;;;;;;5074941;28;20848;-81
2023/04/20 02:40:04;;;;;;;0.43;0.43;;;3.50;99.90;;;;;;5075187;28;20473;-81
2023/04/20 02:42:31;;;;;;;0.60;0.60;;;3.50;99.90;;;;;;5074933;28;20452;-81
2023/04/20 02:44:58;;;;;;;2.30;1.43;;;3.50;99.90;;;;;;5074921;28;20436;-81
2023/04/20 02:47:24;;;;;;;2.43;0.70;;;3.40;99.90;;;;;;5075111;28;20441;-81
2023/04/20 02:49:52;;;;;;;1.07;1.00;;;3.40;99.90;;;;;;5074963;28;20456;-81
2023/04/20 02:52:19;;;;;;;0.50;0.50;;;3.30;99.90;;;;;;5074690;28;20442;-80
2023/04/20 02:54:46;;;;;;;0.60;0.50;;;3.30;99.90;;;;;;5074943;28;20454;-81
2023/04/20 02:57:13;;;;;;;0.70;0.40;;;3.20;99.90;;;;;;5074837;28;20461;-81
2023/04/20 02:59:39;;;;;;;0.30;0.30;;;3.20;99.90;;;;;;5074590;28;20461;-81
2023/04/20 03:02:06;;;;;;;1.23;0.63;;;3.20;99.90;;;;;;5074802;28;20449;-81
2023/04/20 03:04:33;;;;;;;0.83;0.83;;;3.10;99.90;;;;;;5074753;28;20456;-81
2023/04/20 03:07:01;;;;;;;0.90;0.50;;;3.10;99.90;;;;;;5074061;28;20461;-81
2023/04/20 03:09:28;;;;;;;3.13;1.63;;;3.10;99.90;;;;;;5074649;28;20460;-81
2023/04/20 03:11:55;;;;;;;2.83;1.37;;;3.10;99.90;;;;;;5074406;28;20553;-81
2023/04/20 03:14:22;;;;;;;1.57;0.77;;;3.00;99.90;;;;;;5074339;28;20451;-81
2023/04/20 03:16:48;;;;;;;0.53;0.53;;;3.00;99.90;;;;;;5074620;28;20445;-81
2023/04/20 03:19:15;;;;;;;0.70;0.70;;;3.00;99.90;;;;;;5074081;28;21027;-81
2023/04/20 03:21:42;;;;;;;2.03;0.93;;;3.00;99.90;;;;;;5074056;28;20477;-81
2023/04/20 03:24:11;;;;;;;0.63;0.50;;;3.00;99.90;;;;;;5074386;28;20453;-81
2023/04/20 03:26:37;;;;;;;0.80;0.50;;;3.00;99.90;;;;;;5074325;28;20460;-81
2023/04/20 03:29:04;;;;;;;0.40;0.40;;;3.00;99.90;;;;;;5073952;28;20994;-80
2023/04/20 03:31:31;;;;;;;0.70;0.70;;;3.00;99.90;;;;;;5073894;28;20469;-81
2023/04/20 03:33:57;;;;;;;1.27;0.90;;;3.00;99.90;;;;;;5074179;28;20446;-81
2023/04/20 03:36:25;;;;;;;3.90;0.80;;;3.00;99.90;;;;;;5073818;28;20974;-81
2023/04/20 03:38:51;;;;;;;0.60;0.60;;;3.00;99.90;;;;;;5074034;28;20477;-81
2023/04/20 03:41:19;;;;;;;0.47;0.47;;;2.90;99.90;;;;;;5074004;28;20469;-81
2023/04/20 03:43:46;;;;;;;0.50;0.47;;;2.90;99.90;;;;;;5074017;28;20543;-81
2023/04/20 03:46:13;;;;;;;1.10;1.00;;;2.90;99.90;;;;;;5073979;28;20446;-81
2023/04/20 03:48:40;;;;;;;0.40;0.40;;;2.90;99.90;;;;;;5073614;28;20957;-80
2023/04/20 03:51:06;;;;;;;0.70;0.70;;;2.90;99.90;;;;;;5073824;28;20465;-81
2023/04/20 03:53:33;;;;;;;1.70;0.73;;;2.90;99.90;;;;;;5073829;28;20453;-81
2023/04/20 03:56:00;;;;;;;5.30;0.83;;;3.00;99.90;;;;;;5073459;28;20945;-81
2023/04/20 03:58:28;;;;;;;0.40;0.40;;;2.90;99.90;;;;;;5073689;28;20492;-81
2023/04/20 04:01:01;;;;;;;0.87;0.87;;;2.90;99.90;;;;;;5073275;28;20868;-81
2023/04/20 04:03:28;;;;;;;1.43;1.20;;;2.90;99.90;;;;;;5073753;28;20466;-81
2023/04/20 04:05:55;;;;;;;0.40;0.40;;;2.90;99.90;;;;;;5073682;28;20450;-80
2023/04/20 04:08:22;;;;;;;1.23;1.10;;;2.80;99.90;;;;;;5073338;28;20441;-81
2023/04/20 04:10:48;;;;;;;0.73;0.60;;;2.80;99.90;;;;;;5073466;28;20465;-81
2023/04/20 04:13:15;;;;;;;0.60;0.43;;;2.80;99.90;;;;;;5073582;28;20468;-81
2023/04/20 04:15:43;;;;;;;0.83;0.83;;;2.80;99.90;;;;;;5073543;28;20454;-81
2023/04/20 04:18:10;;;;;;;1.53;0.80;;;2.80;99.90;;;;;;5072591;28;20482;-81
2023/04/20 04:20:37;;;;;;;3.17;0.67;;;2.80;99.90;;;;;;5073405;28;20474;-81
2023/04/20 04:23:03;;;;;;;1.63;0.97;;;2.80;99.90;;;;;;5073153;28;21009;-81
2023/04/20 04:25:30;;;;;;;4.10;1.33;;;2.70;99.90;;;;;;5073391;28;20441;-81
2023/04/20 04:27:57;;;;;;;0.50;0.50;;;2.70;99.90;;;;;;5073411;28;20452;-81
2023/04/20 04:30:24;;;;;;;1.10;1.00;;;2.70;99.90;;;;;;5073284;28;20465;-81
2023/04/20 04:32:52;;;;;;;1.57;0.93;;;2.80;99.90;;;;;;5073028;28;20929;-81
2023/04/20 04:35:19;;;;;;;0.87;0.87;;;2.80;99.90;;;;;;5073276;28;20461;-81
2023/04/20 04:37:46;;;;;;;0.70;0.70;;;2.80;99.90;;;;;;5073252;28;20438;-81
2023/04/20 04:40:13;;;;;;;0.60;0.50;;;2.80;99.90;;;;;;5073202;28;20469;-81
2023/04/20 04:42:40;;;;;;;2.77;1.37;;;2.80;99.90;;;;;;5073277;28;20445;-81
2023/04/20 04:45:09;;;;;;;0.93;0.73;;;2.80;99.90;;;;;;5073237;28;20868;-81
2023/04/20 04:47:36;;;;;;;0.70;0.60;;;2.80;99.90;;;;;;5072871;28;20519;-81
2023/04/20 04:50:05;;;;;;;1.43;0.97;;;2.80;99.90;;;;;;5072844;28;20473;-81
2023/04/20 04:52:32;;;;;;;0.57;0.57;;;2.80;99.90;;;;;;5073143;28;20806;-81
2023/04/20 04:54:59;;;;;;;0.80;0.70;;;2.90;99.90;;;;;;5072860;28;20448;-81
2023/04/20 04:57:27;;;;;;;0.40;0.40;;;2.80;99.90;;;;;;5073142;28;20441;-81
2023/04/20 04:59:54;;;;;;;1.03;0.90;;;2.90;99.90;;;;;;5072728;28;20546;-81
2023/04/20 05:02:20;;;;;;;1.73;0.97;;;2.90;99.90;;;;;;5072776;28;20910;-81
2023/04/20 05:04:47;;;;;;;2.83;0.63;;;3.00;99.90;;;;;;5072721;28;20948;-81
2023/04/20 05:07:16;;;;;;;0.50;0.50;;;3.00;99.90;;;;;;5073066;28;20453;-81
2023/04/20 05:09:42;;;;;;;1.07;1.07;;;3.00;99.90;;;;;;5072905;28;20448;-81
2023/04/20 05:12:09;;;;;;;0.50;0.50;;;3.10;99.90;;;;;;5073017;28;20452;-81
2023/04/20 05:14:36;;;;;;;1.80;1.00;;;3.10;99.90;;;;;;5072963;28;20467;-81
2023/04/20 05:17:03;;;;;;;0.80;0.63;;;3.10;99.90;;;;;;5072956;28;20453;-81
2023/04/20 05:19:29;;;;;;;0.60;0.60;;;3.20;99.90;;;;;;5072628;28;20925;-81
2023/04/20 05:21:56;;;;;;;1.43;1.33;;;3.20;99.90;;;;;;5072785;28;20480;-81
2023/04/20 05:24:24;;;;;;;6.93;1.70;;;3.40;99.90;;;;;;5072577;28;20940;-81
2023/04/20 05:26:51;;;;;;;0.90;0.67;;;3.50;99.90;;;;;;5072899;28;20445;-80
2023/04/20 05:29:18;;;;;;;1.27;1.17;;;3.60;99.90;;;;;;5074437;28;20952;-81
2023/04/20 05:31:45;;;;;;;1.23;0.90;;;3.70;99.90;;;;;;5077024;28;20465;-81
2023/04/20 05:34:11;;;;;;;1.13;1.03;;;3.80;99.90;;;;;;5076975;28;20449;-81
2023/04/20 05:36:39;;;;;;;0.70;0.70;;;3.90;99.90;;;;;;5076207;28;20507;-81
2023/04/20 05:39:06;;;;;;;0.87;0.87;;;3.90;99.90;;;;;;5076327;28;20481;-81
2023/04/20 05:41:34;;;;;;;2.50;0.70;;;4.00;99.90;;;;;;5076012;28;20526;-81
2023/04/20 05:44:01;;;;;;;1.83;1.00;;;4.10;99.90;;;;;;5076330;28;20453;-81
2023/04/20 05:46:28;;;;;;;1.63;1.47;;;4.10;99.90;;;;;;5075946;28;20446;-81
2023/04/20 05:48:55;;;;;;;0.80;0.80;;;4.20;99.90;;;;;;5076180;28;20449;-81
2023/04/20 05:51:22;;;;;;;3.43;1.53;;;4.40;99.90;;;;;;5075887;28;21041;-81
2023/04/20 05:53:49;;;;;;;0.83;0.60;;;4.60;99.90;;;;;;5076142;28;20476;-81
2023/04/20 05:56:17;;;;;;;0.63;0.63;;;4.90;99.90;;;;;;5076102;28;20544;-81
2023/04/20 05:58:45;;;;;;;1.63;1.50;;;5.20;99.90;;;;;;5075985;28;20473;-81
2023/04/20 06:01:12;;;;;;;1.67;1.03;;;5.60;99.90;;;;;;5075423;28;21015;-81
2023/04/20 06:03:39;;;;;;;0.70;0.70;;;5.90;99.90;;;;;;5075923;28;20453;-81
2023/04/20 06:06:06;;;;;;;1.30;1.20;;;6.40;99.90;;;;;;5075967;28;20535;-81
2023/04/20 06:08:33;;;;;;;3.13;0.70;;;7.00;99.90;;;;;;5075541;28;20862;-82
2023/04/20 06:11:00;;;;;;;1.57;0.93;;;7.50;99.90;;;;;;5075766;28;20466;-81
2023/04/20 06:13:26;;;;;;;1.57;0.80;;;8.20;99.90;;;;;;5075798;28;20452;-81
2023/04/20 06:15:54;;;;;;;1.23;1.13;;;8.60;99.90;;;;;;5075789;28;20448;-82
2023/04/20 06:18:22;;;;;;;1.90;1.77;;;8.90;99.90;;;;;;5075625;28;20449;-82
2023/04/20 06:20:48;;;;;;;1.73;1.07;;;8.90;99.90;;;;;;5075585;28;20466;-82
2023/04/20 06:23:15;;;;;;;3.37;1.10;;;8.90;99.90;;;;;;5075584;28;20446;-82
2023/04/20 06:25:42;;;;;;;1.40;0.97;;;9.00;99.90;;;;;;5075558;28;20457;-82
2023/04/20 06:28:10;;;;;;;2.00;1.67;;;9.20;99.90;;;;;;5075525;28;20879;-82
2023/04/20 06:30:36;;;;;;;2.00;0.90;;;9.40;99.90;;;;;;5075036;28;20465;-82
2023/04/20 06:33:04;;;;;;;3.63;1.53;;;9.60;99.90;;;;;;5075417;28;20454;-81
2023/04/20 06:35:31;;;;;;;1.67;1.57;;;9.90;99.90;;;;;;5075062;28;20445;-81
2023/04/20 06:38:01;;;;;;;1.37;1.10;;;10.10;99.90;;;;;;5075236;28;20445;-81
2023/04/20 06:40:28;;;;;;;2.80;1.13;;;9.90;99.90;;;;;;5073815;28;21054;-82
2023/04/20 06:42:55;;;;;;;2.50;1.50;;;9.50;99.90;;;;;;5075082;28;20457;-82
2023/04/20 06:45:22;;;;;;;1.53;1.33;;;9.10;99.90;;;;;;5075088;28;20453;-81
2023/04/20 06:47:49;;;;;;;1.33;1.17;;;8.90;99.90;;;;;;5074700;28;20820;-81
2023/04/20 06:50:17;;;;;;;3.87;1.47;;;8.80;99.90;;;;;;5074824;28;20469;-82
2023/04/20 06:52:44;;;;;;;2.57;2.10;;;8.60;99.90;;;;;;5074910;28;20452;-81
2023/04/20 06:55:10;;;;;;;1.57;1.47;;;8.60;99.90;;;;;;5074881;28;20449;-82
2023/04/20 06:57:38;;;;;;;1.60;1.03;;;8.60;99.90;;;;;;5074802;28;20472;-82
2023/04/20 07:00:07;;;;;;;1.27;1.10;;;9.00;99.90;;;;;;5074188;28;20488;-81
2023/04/20 07:02:42;;;;;;;1.67;1.40;;;9.60;99.90;;;;;;5074729;28;20453;-82
2023/04/20 07:05:10;;;;;;;1.67;1.10;;;10.80;99.90;;;;;;5074702;28;20429;-82
2023/04/20 07:07:38;;;;;;;1.57;1.10;;;11.90;99.90;;;;;;5074311;28;20948;-82
2023/04/20 07:10:05;;;;;;;2.90;2.40;;;13.00;99.90;;;;;;5074614;28;20457;-82
2023/04/20 07:12:34;;;;;;;3.17;1.90;;;14.10;99.90;;;;;;5074628;28;20458;-82
2023/04/20 07:15:02;;;;;;;2.60;2.10;;;14.60;99.90;;;;;;5075115;28;20457;-82
2023/04/20 07:17:29;;;;;;;2.27;1.57;;;14.80;99.90;;;;;;5074173;28;20471;-81
2023/04/20 07:19:56;;;;;;;1.50;1.20;;;14.40;99.50;;;;;;5074090;28;20477;-82
2023/04/20 07:22:23;;;;;;;4.53;2.87;;;14.10;99.90;;;;;;5074117;28;20503;-82
2023/04/20 07:24:51;;;;;;;1.67;1.40;;;13.40;99.90;;;;;;5074365;28;20453;-82
2023/04/20 07:27:18;;;;;;;2.10;1.40;;;13.20;99.90;;;;;;5074102;28;20442;-82
2023/04/20 07:29:45;;;;;;;2.20;1.43;;;12.90;99.90;;;;;;5074252;28;20441;-82
2023/04/20 07:32:11;;;;;;;2.77;1.53;;;13.10;99.90;;;;;;5073920;28;20952;-82
2023/04/20 07:34:38;;;;;;;2.60;2.40;;;13.20;99.90;;;;;;5074054;28;20456;-83
2023/04/20 07:37:05;;;;;;;3.07;2.40;;;13.20;99.90;;;;;;5074714;28;20445;-81
2023/04/20 07:39:32;;;;;;;2.40;1.33;;;13.00;99.90;;;;;;5073706;28;20484;-82
2023/04/20 07:42:02;;;;;;;2.30;1.80;;;13.10;99.90;;;;;;5073964;28;20465;-82
2023/04/20 07:44:29;;;;;;;2.37;1.73;;;13.00;99.90;;;;;;5073714;28;20944;-82
2023/04/20 07:46:56;;;;;;;1.30;1.20;;;13.70;99.90;;;;;;5073957;28;20430;-82
2023/04/20 07:49:23;;;;;;;2.10;1.93;;;13.40;99.60;;;;;;5073889;28;20446;-83
2023/04/20 07:51:49;;;;;;;3.70;1.80;;;12.70;99.90;;;;;;5073686;28;20477;-83
2023/04/20 07:54:16;;;;;;;2.33;1.40;;;11.90;99.90;;;;;;5073549;28;20971;-83
2023/04/20 07:56:43;;;;;;;7.40;1.83;;;11.20;99.90;;;;;;5073799;28;20460;-83
2023/04/20 07:59:11;;;;;;;4.20;2.00;;;10.60;99.90;;;;;;5073416;28;20485;-83
2023/04/20 08:01:38;;;;;;;2.83;1.60;;;10.30;99.90;;;;;;5073285;28;20473;-83
2023/04/20 08:04:05;;;;;;;1.90;1.67;;;10.10;99.90;;;;;;5073792;28;20450;-80
2023/04/20 08:06:32;;;;;;;2.53;1.60;;;9.80;99.90;;;;;;5073671;28;20445;-79
2023/04/20 08:08:58;;;;;;;2.67;1.47;;;9.60;99.90;;;;;;5073623;28;20446;-83
2023/04/20 08:11:25;;;;;;;3.67;1.60;;;9.40;99.90;;;;;;5073513;28;20465;-83
2023/04/20 08:13:52;;;;;;;1.80;1.23;;;9.00;99.90;;;;;;5073614;28;20820;-83
2023/04/20 08:16:20;;;;;;;2.10;1.90;;;8.80;99.90;;;;;;5073310;28;20932;-83
2023/04/20 08:18:47;;;;;;;3.47;1.23;;;8.50;99.90;;;;;;5073419;28;20449;-83
2023/04/20 08:21:14;;;;;;;2.40;1.67;;;8.30;99.90;;;;;;5073447;28;20453;-83
2023/04/20 08:23:40;;;;;;;1.20;1.00;;;8.20;99.90;;;;;;5073471;28;20448;-83
2023/04/20 08:26:07;;;;;;;1.87;1.00;;;8.00;99.90;;;;;;5073420;28;20457;-82
2023/04/20 08:28:34;;;;;;;4.40;2.30;;;7.70;99.90;;;;;;5073125;28;20450;-82
2023/04/20 08:31:01;;;;;;;2.77;1.93;;;7.50;99.90;;;;;;5073359;28;20465;-83
2023/04/20 08:33:29;;;;;;;2.00;1.53;;;7.40;99.90;;;;;;5073471;28;20446;-82
2023/04/20 08:35:55;;;;;;;1.80;0.80;;;7.20;99.90;;;;;;5073579;28;20468;-83
2023/04/20 08:38:23;;;;;;;4.33;2.00;;;7.00;99.90;;;;;;5073366;28;20437;-82
2023/04/20 08:40:50;;;;;;;0.93;0.83;;;6.90;99.90;;;;;;5073149;28;20568;-83
2023/04/20 08:43:17;;;;;;;5.53;1.33;;;6.70;99.90;;;;;;5073294;28;20464;-82
2023/04/20 08:45:48;;;;;;;3.27;2.70;;;6.60;99.90;;;;;;5073011;28;20960;-82
2023/04/20 08:48:19;;;;;;;2.33;1.30;;;6.50;99.90;;;;;;5073234;28;20434;-82
2023/04/20 08:50:48;;;;;;;1.67;1.43;;;6.40;99.90;;;;;;5073214;28;20461;-82
2023/04/20 08:53:15;;;;;;;1.40;1.17;;;6.30;99.90;;;;;;5073204;28;20567;-82
2023/04/20 08:55:41;;;;;;;1.03;0.90;;;6.20;99.90;;;;;;5072963;28;20507;-82
2023/04/20 08:58:08;;;;;;;1.30;1.20;;;6.20;99.90;;;;;;5073088;28;20449;-82
2023/04/20 09:00:35;;;;;;;1.17;1.10;;;6.20;99.90;;;;;;5072697;28;20497;-82
2023/04/20 09:03:01;;;;;;;4.40;2.17;;;6.20;99.90;;;;;;5073109;28;20446;-82
2023/04/20 09:05:30;;;;;;;2.57;1.30;;;6.20;99.90;;;;;;5076431;28;20967;-83
2023/04/20 09:08:01;;;;;;;6.13;1.33;;;6.20;99.90;;;;;;5077046;28;20434;-83
2023/04/20 09:10:40;;;;;;;1.37;1.27;;;6.20;99.90;;;;;;5076908;28;20552;-83
2023/04/20 09:13:06;;;;;;;2.30;1.80;;;6.10;99.90;;;;;;5076992;28;20433;-83
2023/04/20 09:15:33;;;;;;;6.83;1.20;;;6.10;99.90;;;;;;5076600;28;20870;-83
2023/04/20 09:18:11;;;;;;;1.47;1.37;;;6.10;99.90;;;;;;5076586;28;20464;-83
2023/04/20 09:20:38;;;;;;;1.70;1.43;;;6.20;99.90;;;;;;5076676;28;20906;-83
2023/04/20 09:23:12;;;;;;;1.50;1.40;;;6.20;99.90;;;;;;5076769;28;20441;-82
2023/04/20 09:25:42;;;;;;;2.30;1.30;;;6.20;99.90;;;;;;5076672;28;20820;-84
2023/04/20 09:28:08;;;;;;;1.43;0.93;;;6.40;99.90;;;;;;5076348;28;20450;-83
2023/04/20 09:30:39;;;;;;;1.13;1.13;;;6.40;99.90;;;;;;5076308;28;20461;-83
2023/04/20 09:33:09;;;;;;;1.73;1.50;;;6.40;99.90;;;;;;5076261;28;20964;-84
2023/04/20 09:35:37;;;;;;;1.53;1.00;;;6.40;99.90;;;;;;5076681;28;20536;-83
2023/04/20 09:38:03;;;;;;;1.90;1.00;;;6.40;99.90;;;;;;5076501;28;20449;-83
2023/04/20 09:40:33;;;;;;;1.17;1.07;;;6.40;99.90;;;;;;5076242;28;20488;-83
2023/04/20 09:43:04;;;;;;;2.03;1.90;;;6.40;99.90;;;;;;5076402;28;20795;-83
2023/04/20 09:45:31;;;;;;;2.03;0.83;;;6.40;99.90;;;;;;5076389;28;20437;-82
2023/04/20 09:47:59;;;;;;;3.57;1.03;;;6.40;99.90;;;;;;5076292;28;20437;-84
2023/04/20 09:50:26;;;;;;;0.60;0.50;;;6.40;99.90;;;;;;5075876;28;20462;-83
2023/04/20 09:52:54;;;;;;;2.80;1.40;;;6.50;99.90;;;;;;5076186;28;20451;-83
2023/04/20 09:55:21;;;;;;;0.60;0.60;;;6.60;99.90;;;;;;5076161;28;20496;-83
2023/04/20 09:57:50;;;;;;;1.57;1.47;;;6.60;99.90;;;;;;5076083;28;20476;-84
2023/04/20 10:00:17;;;;;;;2.30;1.60;;;6.60;99.90;;;;;;5075702;28;20492;-83
2023/04/20 10:02:46;;;;;;;1.20;1.10;;;6.60;99.90;;;;;;5076021;28;20449;-83
2023/04/20 10:05:14;;;;;;;2.17;1.67;;;6.60;99.90;;;;;;5076014;28;20445;-83
2023/04/20 10:07:41;;;;;;;1.33;1.00;;;6.60;99.90;;;;;;5075872;28;20453;-83
2023/04/20 10:10:10;;;;;;;3.73;1.93;;;6.70;99.90;;;;;;5075825;28;20484;-83
2023/04/20 10:12:52;;;;;;;1.30;0.73;;;6.70;99.90;;;;;;5075852;28;20496;-83
2023/04/20 10:15:20;;;;;;;1.43;1.43;;;6.70;99.90;;;;;;5074176;28;20937;-83
2023/04/20 10:17:47;;;;;;;1.47;1.37;;;6.60;99.90;;;;;;5075716;28;20458;-83
2023/04/20 10:20:21;;;;;;;0.50;0.50;;;6.70;99.90;;;;;;5075567;28;20489;-83
2023/04/20 10:22:49;;;;;;;1.63;1.40;;;6.70;99.90;;;;;;5075308;28;20445;-83
2023/04/20 10:25:19;;;;;;;1.27;1.10;;;6.70;99.90;;;;;;5075307;28;20967;-82
2023/04/20 10:27:58;;;;;;;1.60;1.03;;;6.70;99.90;;;;;;5075270;28;21013;-84
2023/04/20 10:30:27;;;;;;;0.70;0.67;;;6.70;99.90;;;;;;5075480;28;20469;-83
2023/04/20 10:33:04;;;;;;;1.33;1.20;;;6.70;99.90;;;;;;5075195;28;20968;-84
2023/04/20 10:35:41;;;;;;;1.47;1.10;;;6.60;99.90;;;;;;5075403;28;20536;-83
2023/04/20 10:38:09;;;;;;;3.23;1.07;;;6.60;99.90;;;;;;5075417;28;20437;-83
2023/04/20 10:40:36;;;;;;;0.97;0.90;;;6.50;99.90;;;;;;5075224;28;20485;-83
2023/04/20 10:43:04;;;;;;;2.20;0.87;;;6.60;99.90;;;;;;5075352;28;20434;-83
2023/04/20 10:45:35;;;;;;;2.87;1.33;;;6.70;99.90;;;;;;5075240;28;20445;-83
2023/04/20 10:48:08;;;;;;;5.43;1.03;;;6.80;99.90;;;;;;5075209;28;20441;-83
2023/04/20 10:50:35;;;;;;;1.27;0.70;;;6.80;99.90;;;;;;5074827;28;20473;-83
2023/04/20 10:53:03;;;;;;;1.70;1.57;;;6.80;99.90;;;;;;5075154;28;20487;-83
2023/04/20 10:55:30;;;;;;;3.27;0.80;;;6.60;99.90;;;;;;5075041;28;20446;-86
2023/04/20 10:57:57;;;;;;;0.90;0.90;;;6.60;99.90;;;;;;5074992;28;20457;-85
2023/04/20 11:00:29;;;;;;;2.13;1.13;;;6.40;99.90;;;;;;5074540;28;20489;-84
2023/04/20 11:02:57;;;;;;;1.30;1.20;;;6.20;99.90;;;;;;5074669;28;20817;-85
2023/04/20 11:05:25;;;;;;;3.50;2.03;;;6.20;99.90;;;;;;5074926;28;20445;-85
2023/04/20 11:07:52;;;;;;;0.60;0.60;;;6.10;99.90;;;;;;5074825;28;20458;-86
2023/04/20 11:10:20;;;;;;;2.17;0.67;;;6.00;99.90;;;;;;5075010;28;20469;-84
2023/04/20 11:12:46;;;;;;;0.77;0.77;;;6.00;99.90;;;;;;5074693;28;20889;-84
2023/04/20 11:15:13;;;;;;;2.40;0.80;;;6.00;99.90;;;;;;5074299;28;20453;-84
2023/04/20 11:17:41;;;;;;;4.13;1.00;;;6.10;99.90;;;;;;5074576;28;20446;-83
2023/04/20 11:20:11;;;;;;;1.30;0.90;;;6.20;99.90;;;;;;5074368;28;20488;-84
2023/04/20 11:22:38;;;;;;;0.53;0.53;;;6.20;99.90;;;;;;5074141;28;20445;-84
2023/04/20 11:25:06;;;;;;;0.50;0.50;;;6.20;99.90;;;;;;5074160;28;20949;-85
2023/04/20 11:27:33;;;;;;;1.10;0.57;;;6.20;99.90;;;;;;5074021;28;20446;-84
2023/04/20 11:30:04;;;;;;;1.50;0.50;;;6.10;99.90;;;;;;5074014;28;20892;-84
2023/04/20 11:32:31;;;;;;;1.93;0.87;;;6.10;99.90;;;;;;5074313;28;20433;-83
2023/04/20 11:35:01;;;;;;;2.00;1.50;;;5.90;99.90;;;;;;5074295;28;20438;-83
2023/04/20 11:37:28;;;;;;;2.23;0.60;;;5.90;99.90;;;;;;5074172;28;20450;-83
2023/04/20 11:40:02;;;;;;;3.13;1.10;;;5.80;99.90;;;;;;5074023;28;20457;-83
2023/04/20 11:42:29;;;;;;;0.77;0.77;;;5.80;99.90;;;;;;5074115;28;20481;-83
2023/04/20 11:44:56;;;;;;;4.30;0.97;;;5.80;99.90;;;;;;5073909;28;20456;-83
2023/04/20 11:47:23;;;;;;;2.60;1.20;;;5.80;99.90;;;;;;5074048;28;20458;-84
2023/04/20 11:49:50;;;;;;;0.80;0.80;;;5.80;99.90;;;;;;5073869;28;20488;-84
2023/04/20 11:52:18;;;;;;;1.20;1.10;;;5.80;99.90;;;;;;5073927;28;20472;-83
2023/04/20 11:54:44;;;;;;;1.20;1.00;;;5.80;99.90;;;;;;5073612;28;20441;-84
2023/04/20 11:57:11;;;;;;;1.10;0.70;;;5.70;99.90;;;;;;5073845;28;20445;-84
2023/04/20 11:59:38;;;;;;;6.63;1.93;;;5.70;99.90;;;;;;5073489;28;20464;-83
2023/04/20 12:02:05;;;;;;;1.03;0.60;;;5.70;99.90;;;;;;5073347;28;21031;-84
2023/04/20 12:04:33;;;;;;;2.53;1.10;;;5.70;99.90;;;;;;5073767;28;20437;-83
2023/04/20 12:07:02;;;;;;;0.60;0.60;;;5.70;99.90;;;;;;5073699;28;20560;-83
2023/04/20 12:09:34;;;;;;;1.30;0.97;;;5.60;99.90;;;;;;5073621;28;20460;-83
2023/04/20 12:12:02;;;;;;;0.50;0.50;;;5.60;99.90;;;;;;5073640;28;20462;-83
2023/04/20 12:14:28;;;;;;;1.27;1.17;;;5.70;99.90;;;;;;5073596;28;20526;-83
2023/04/20 12:16:55;;;;;;;0.70;0.70;;;5.70;99.90;;;;;;5073570;28;20473;-83
2023/04/20 12:19:22;;;;;;;0.40;0.40;;;5.80;99.90;;;;;;5073547;28;20445;-83
2023/04/20 12:21:48;;;;;;;1.37;1.20;;;5.80;99.90;;;;;;5073120;28;21022;-83
2023/04/20 12:24:15;;;;;;;1.50;0.93;;;5.80;99.90;;;;;;5073480;28;20450;-83
2023/04/20 12:26:43;;;;;;;2.40;0.80;;;5.90;99.90;;;;;;5073208;28;20960;-83
2023/04/20 12:29:10;;;;;;;1.40;1.00;;;6.00;99.90;;;;;;5073114;28;20843;-83
2023/04/20 12:31:37;;;;;;;2.27;1.70;;;6.10;99.90;;;;;;5073336;28;20468;-83
2023/04/20 12:34:04;;;;;;;4.03;1.27;;;6.20;99.90;;;;;;5073453;28;20450;-83
2023/04/20 12:36:31;;;;;;;0.97;0.97;;;6.40;99.90;;;;;;5073045;28;20429;-83
2023/04/20 12:38:57;;;;;;;1.07;1.00;;;6.40;99.90;;;;;;5072598;28;20453;-83
2023/04/20 12:41:24;;;;;;;5.00;1.87;;;6.50;99.90;;;;;;5073196;28;20481;-83
2023/04/20 12:43:52;;;;;;;2.87;1.10;;;6.40;99.90;;;;;;5073295;28;20446;-83
2023/04/20 12:46:20;;;;;;;2.17;1.10;;;6.40;99.90;;;;;;5073233;28;20450;-83
2023/04/20 12:48:47;;;;;;;2.50;1.33;;;6.40;99.90;;;;;;5072951;28;20906;-83
2023/04/20 12:51:14;;;;;;;2.03;1.10;;;6.40;99.90;;;;;;5073123;28;20472;-83
2023/04/20 12:53:41;;;;;;;1.37;1.10;;;6.50;99.90;;;;;;5073279;28;20449;-83
2023/04/20 12:56:08;;;;;;;1.10;1.00;;;6.50;99.90;;;;;;5073227;28;20453;-83